Time;durP1;ratioP1;P1;durP2;ratioP2;P2;SDS_P1;SDS_P2;PMS_P1;PMS_P2;Temp;Humidity;BMP_temperature;BMP_pressure;BME280_temperature;BME280_humidity;BME280_pressure;Samples;Min_cycle;Max_cycle;Signal;HPM_P1;HPM_P2
2023/06/15 00:01:47;;;;;;;80.30;2.20;;;20.70;26.50;;;;;;5072096;28;20486;-70
2023/06/15 00:04:12;;;;;;;82.13;2.57;;;20.60;26.40;;;;;;5072023;28;20451;-70
2023/06/15 00:06:38;;;;;;;80.67;2.40;;;20.40;26.30;;;;;;5071824;28;20183;-69
2023/06/15 00:09:04;;;;;;;81.13;2.40;;;20.40;26.50;;;;;;5072278;28;20815;-69
2023/06/15 00:11:29;;;;;;;81.97;2.57;;;20.50;26.40;;;;;;5071881;28;20183;-69
2023/06/15 00:13:55;;;;;;;80.70;2.50;;;20.40;26.30;;;;;;5072086;28;20178;-69
2023/06/15 00:16:20;;;;;;;81.20;2.90;;;20.50;26.30;;;;;;5071627;28;20198;-72
2023/06/15 00:18:54;;;;;;;80.73;2.13;;;20.50;27.00;;;;;;5071952;28;20209;-69
2023/06/15 00:23:55;;;;;;;80.63;2.20;;;20.10;26.90;;;;;;5013322;23;20530;-70
2023/06/15 00:26:21;;;;;;;81.10;2.33;;;20.20;26.90;;;;;;4975606;28;20915;-69
2023/06/15 00:29:17;;;;;;;80.80;2.40;;;20.20;27.70;;;;;;4972608;28;20631;-69
2023/06/15 00:31:43;;;;;;;81.67;2.70;;;20.10;26.80;;;;;;4972942;28;20199;-70
2023/06/15 00:34:09;;;;;;;80.90;2.50;;;20.10;27.00;;;;;;4972558;28;20401;-69
2023/06/15 00:36:34;;;;;;;80.63;2.33;;;20.00;27.20;;;;;;4972790;28;20244;-72
2023/06/15 00:39:00;;;;;;;81.37;2.57;;;19.90;27.80;;;;;;4972261;28;20193;-70
2023/06/15 00:41:25;;;;;;;81.70;2.87;;;19.80;27.80;;;;;;4972828;28;20170;-69
2023/06/15 00:43:52;;;;;;;81.30;2.50;;;19.70;28.10;;;;;;4972627;28;20181;-71
2023/06/15 00:46:18;;;;;;;81.03;2.53;;;19.60;28.00;;;;;;4972482;28;20558;-69
2023/06/15 00:48:44;;;;;;;81.70;2.60;;;19.70;28.00;;;;;;4972426;28;20412;-70
2023/06/15 00:51:10;;;;;;;81.33;2.67;;;19.70;27.60;;;;;;4972708;28;20264;-71
2023/06/15 00:53:37;;;;;;;80.87;2.27;;;19.70;28.30;;;;;;4972505;28;20189;-72
2023/06/15 00:56:04;;;;;;;80.87;2.30;;;19.80;28.00;;;;;;4972316;28;20787;-69
2023/06/15 00:58:31;;;;;;;81.37;2.53;;;19.70;27.60;;;;;;4972589;28;20572;-70
2023/06/15 01:00:56;;;;;;;81.10;2.50;;;19.70;27.40;;;;;;4972131;28;20412;-70
2023/06/15 01:03:22;;;;;;;82.77;2.93;;;20.00;28.00;;;;;;4972388;28;20851;-69
2023/06/15 01:05:52;;;;;;;81.00;2.40;;;19.60;28.40;;;;;;4972253;28;20168;-70
2023/06/15 01:08:20;;;;;;;83.03;2.77;;;19.50;27.60;;;;;;4972490;28;20657;-70
2023/06/15 01:10:47;;;;;;;81.40;2.63;;;19.90;28.40;;;;;;4972451;28;20466;-72
2023/06/15 01:13:13;;;;;;;81.87;2.53;;;19.50;27.70;;;;;;4971498;28;20524;-69
2023/06/15 01:15:41;;;;;;;81.03;2.17;;;19.60;28.10;;;;;;4971225;28;20414;-70
2023/06/15 01:18:08;;;;;;;84.73;3.17;;;19.40;27.90;;;;;;4971951;28;20469;-69
2023/06/15 01:20:44;;;;;;;81.77;2.70;;;19.40;27.80;;;;;;4972016;28;20431;-69
2023/06/15 01:23:27;;;;;;;83.27;2.63;;;19.60;28.20;;;;;;4972427;28;20446;-69
2023/06/15 01:25:57;;;;;;;81.43;2.20;;;19.30;28.00;;;;;;4975617;28;20550;-69
2023/06/15 01:28:24;;;;;;;81.30;2.50;;;19.50;28.50;;;;;;4975742;28;20433;-69
2023/06/15 01:30:55;;;;;;;81.30;2.20;;;19.40;29.10;;;;;;4975748;28;20406;-71
2023/06/15 01:33:22;;;;;;;81.47;2.30;;;19.10;29.00;;;;;;4975700;28;20831;-69
2023/06/15 01:35:48;;;;;;;81.13;1.93;;;19.40;28.40;;;;;;4975565;28;20421;-69
2023/06/15 01:38:15;;;;;;;82.00;2.87;;;19.50;27.20;;;;;;4975655;28;20419;-69
2023/06/15 01:40:45;;;;;;;82.00;2.40;;;19.30;28.70;;;;;;4975627;28;20532;-70
2023/06/15 01:43:14;;;;;;;81.83;2.60;;;19.20;28.40;;;;;;4975588;28;20423;-72
2023/06/15 01:45:42;;;;;;;81.87;2.60;;;19.50;28.70;;;;;;4975358;28;20403;-72
2023/06/15 01:48:08;;;;;;;81.97;2.57;;;19.40;28.80;;;;;;4975601;28;20496;-69
2023/06/15 01:50:36;;;;;;;81.60;2.10;;;19.00;28.60;;;;;;4975468;28;20414;-69
2023/06/15 01:53:02;;;;;;;82.10;2.33;;;18.90;28.70;;;;;;4975600;28;20430;-70
2023/06/15 01:55:28;;;;;;;82.80;2.50;;;18.80;29.40;;;;;;4975335;28;20449;-69
2023/06/15 01:57:54;;;;;;;82.07;2.30;;;18.80;29.70;;;;;;4974128;28;20552;-69
2023/06/15 02:00:22;;;;;;;81.83;2.43;;;18.90;29.40;;;;;;4975319;28;20494;-70
2023/06/15 02:02:48;;;;;;;81.80;2.10;;;19.00;29.00;;;;;;4975248;28;20188;-69
2023/06/15 02:05:13;;;;;;;81.87;2.13;;;19.00;28.70;;;;;;4973758;28;20480;-70
2023/06/15 02:07:40;;;;;;;81.70;1.90;;;18.80;28.60;;;;;;4975403;28;20171;-72
2023/06/15 02:10:06;;;;;;;82.47;2.40;;;18.80;29.40;;;;;;4975177;28;20218;-69
2023/06/15 02:12:32;;;;;;;82.40;2.50;;;18.70;29.60;;;;;;4975168;28;20446;-69
2023/06/15 02:15:02;;;;;;;82.50;2.57;;;18.70;29.20;;;;;;4974565;28;20418;-69
2023/06/15 02:17:31;;;;;;;82.20;2.40;;;18.80;29.60;;;;;;4974979;28;20197;-71
2023/06/15 02:19:57;;;;;;;82.57;2.33;;;19.10;29.20;;;;;;4975062;28;20411;-69
2023/06/15 02:22:23;;;;;;;82.30;2.43;;;19.00;29.30;;;;;;4973291;28;20454;-69
2023/06/15 02:24:49;;;;;;;83.17;2.67;;;18.70;29.60;;;;;;4975201;28;20529;-69
2023/06/15 02:27:15;;;;;;;82.77;2.47;;;18.70;29.70;;;;;;4974776;28;20509;-70
2023/06/15 02:29:41;;;;;;;82.07;2.00;;;18.70;30.00;;;;;;4974717;28;20183;-70
2023/06/15 02:32:07;;;;;;;82.20;2.30;;;18.70;28.90;;;;;;4974609;28;20433;-70
2023/06/15 02:34:33;;;;;;;82.53;2.43;;;18.60;29.50;;;;;;4974874;28;20522;-70
2023/06/15 02:36:58;;;;;;;82.10;2.10;;;18.70;29.50;;;;;;4974593;28;20961;-70
2023/06/15 02:39:24;;;;;;;82.53;2.73;;;18.70;29.60;;;;;;4974522;28;20418;-70
2023/06/15 02:41:50;;;;;;;82.30;2.40;;;18.80;30.00;;;;;;4974365;28;20196;-70
2023/06/15 02:44:16;;;;;;;83.27;2.47;;;18.80;30.20;;;;;;4974589;28;20240;-70
2023/06/15 02:46:44;;;;;;;82.20;2.17;;;18.50;29.60;;;;;;4974428;28;20499;-71
2023/06/15 02:49:10;;;;;;;82.17;2.30;;;18.40;29.90;;;;;;4974312;28;20179;-70
2023/06/15 02:51:37;;;;;;;82.30;2.20;;;18.70;30.10;;;;;;4974351;28;20433;-70
2023/06/15 02:54:04;;;;;;;82.77;2.50;;;18.60;29.90;;;;;;4974234;28;20182;-70
2023/06/15 02:56:30;;;;;;;82.50;2.50;;;18.40;30.60;;;;;;4974031;28;20791;-70
2023/06/15 02:58:55;;;;;;;82.50;2.33;;;18.30;29.80;;;;;;4974278;28;20471;-70
2023/06/15 03:01:22;;;;;;;82.87;2.30;;;18.60;30.00;;;;;;4974646;28;20175;-70
2023/06/15 03:03:49;;;;;;;82.47;2.50;;;18.80;30.00;;;;;;4974096;28;20175;-70
2023/06/15 03:06:14;;;;;;;81.97;2.00;;;18.40;30.50;;;;;;4974326;28;20920;-70
2023/06/15 03:08:41;;;;;;;82.50;2.43;;;18.20;30.40;;;;;;4974147;28;20424;-70
2023/06/15 03:11:06;;;;;;;82.00;2.20;;;18.50;31.30;;;;;;4973776;28;20671;-70
2023/06/15 03:13:33;;;;;;;82.60;2.57;;;18.30;30.60;;;;;;4974093;28;20532;-70
2023/06/15 03:16:00;;;;;;;82.77;2.53;;;18.30;30.10;;;;;;4973523;28;20561;-70
2023/06/15 03:18:27;;;;;;;87.80;3.30;;;18.50;30.70;;;;;;4974060;28;20804;-70
2023/06/15 03:20:52;;;;;;;82.17;2.17;;;18.50;30.70;;;;;;4973868;28;20418;-70
2023/06/15 03:23:21;;;;;;;82.50;2.70;;;18.20;30.50;;;;;;4973766;28;20520;-70
2023/06/15 03:25:47;;;;;;;82.60;2.57;;;18.20;30.10;;;;;;4971998;28;20266;-70
2023/06/15 03:28:12;;;;;;;82.43;2.37;;;18.30;30.30;;;;;;4973935;28;20485;-70
2023/06/15 03:30:40;;;;;;;83.10;2.23;;;18.70;30.40;;;;;;4973786;28;20706;-70
2023/06/15 03:33:06;;;;;;;82.87;2.37;;;18.40;30.00;;;;;;4973659;28;20265;-70
2023/06/15 03:35:33;;;;;;;83.17;2.30;;;18.40;30.50;;;;;;4973425;28;20458;-70
2023/06/15 03:37:59;;;;;;;82.97;2.50;;;18.20;30.30;;;;;;4973078;28;20454;-70
2023/06/15 03:40:24;;;;;;;83.10;2.47;;;18.20;30.20;;;;;;4973591;28;20442;-70
2023/06/15 03:42:50;;;;;;;83.60;3.13;;;18.10;30.60;;;;;;4973450;28;20188;-70
2023/06/15 03:45:17;;;;;;;82.17;2.17;;;18.60;31.20;;;;;;4973000;28;20639;-70
2023/06/15 03:47:45;;;;;;;83.27;2.57;;;18.30;31.10;;;;;;4973083;28;20221;-70
2023/06/15 03:50:11;;;;;;;82.97;2.70;;;18.40;31.00;;;;;;4973393;28;20414;-70
2023/06/15 03:52:37;;;;;;;84.77;2.63;;;18.40;30.40;;;;;;4973135;28;20937;-70
2023/06/15 03:55:03;;;;;;;83.60;2.87;;;18.40;30.80;;;;;;4972979;28;20182;-70
2023/06/15 03:57:29;;;;;;;82.80;2.30;;;18.40;30.70;;;;;;4973268;28;20203;-70
2023/06/15 03:59:55;;;;;;;82.77;2.47;;;18.50;30.60;;;;;;4973128;28;20778;-70
2023/06/15 04:02:20;;;;;;;83.40;2.73;;;18.30;30.80;;;;;;4973317;28;20430;-70
2023/06/15 04:04:46;;;;;;;83.27;2.63;;;18.30;31.20;;;;;;4972773;28;20170;-70
2023/06/15 04:07:11;;;;;;;82.90;2.30;;;18.30;30.10;;;;;;4972732;28;20178;-70
2023/06/15 04:09:37;;;;;;;83.20;2.47;;;18.30;30.40;;;;;;4972628;28;20183;-70
2023/06/15 04:12:03;;;;;;;82.87;2.50;;;18.20;30.80;;;;;;4971409;28;20202;-70
2023/06/15 04:14:28;;;;;;;83.57;2.60;;;18.30;31.20;;;;;;4971400;28;20193;-70
2023/06/15 04:16:54;;;;;;;82.97;2.30;;;18.20;30.20;;;;;;4970846;28;20957;-70
2023/06/15 04:19:22;;;;;;;82.60;2.07;;;18.30;30.10;;;;;;4971396;28;20646;-70
2023/06/15 04:21:48;;;;;;;83.23;2.60;;;18.20;30.00;;;;;;4972299;28;20435;-70
2023/06/15 04:24:14;;;;;;;83.33;2.63;;;18.30;30.10;;;;;;4973060;28;20406;-70
2023/06/15 04:26:41;;;;;;;84.23;2.33;;;18.10;30.00;;;;;;4972445;28;20455;-70
2023/06/15 04:29:08;;;;;;;84.30;2.43;;;18.60;31.10;;;;;;4972968;28;20438;-70
2023/06/15 04:31:33;;;;;;;83.57;2.60;;;18.50;30.50;;;;;;4972909;28;20438;-70
2023/06/15 04:34:00;;;;;;;84.37;2.50;;;18.30;30.60;;;;;;4972916;28;20427;-70
2023/06/15 04:36:27;;;;;;;82.90;2.20;;;18.30;31.30;;;;;;4972082;28;20198;-71
2023/06/15 04:38:53;;;;;;;83.83;2.67;;;18.10;30.90;;;;;;4972668;28;20422;-70
2023/06/15 04:41:22;;;;;;;83.77;2.83;;;18.20;31.30;;;;;;4972681;28;20753;-70
2023/06/15 04:43:48;;;;;;;83.10;2.43;;;18.30;31.00;;;;;;4972750;28;20402;-70
2023/06/15 04:46:14;;;;;;;84.10;2.83;;;18.10;31.10;;;;;;4972247;28;20761;-70
2023/06/15 04:48:43;;;;;;;83.27;2.47;;;18.30;31.60;;;;;;4972743;28;20442;-70
2023/06/15 04:51:12;;;;;;;83.17;2.60;;;18.10;32.00;;;;;;4972427;28;20443;-70
2023/06/15 04:53:39;;;;;;;83.83;2.80;;;18.10;31.70;;;;;;4972717;28;20414;-71
2023/06/15 04:56:04;;;;;;;83.43;2.40;;;18.50;30.90;;;;;;4972117;28;20411;-70
2023/06/15 04:58:30;;;;;;;84.20;2.87;;;18.20;31.30;;;;;;4974279;28;20416;-70
2023/06/15 05:00:56;;;;;;;83.80;2.80;;;18.20;31.10;;;;;;4976340;28;20706;-70
2023/06/15 05:03:22;;;;;;;83.63;2.50;;;18.20;30.40;;;;;;4976408;28;20232;-70
2023/06/15 05:05:47;;;;;;;83.57;2.50;;;18.30;30.50;;;;;;4975951;28;20418;-70
2023/06/15 05:08:14;;;;;;;83.80;2.37;;;18.00;31.00;;;;;;4976098;28;20258;-70
2023/06/15 05:10:39;;;;;;;83.60;2.50;;;18.10;31.20;;;;;;4976507;28;20229;-70
2023/06/15 05:13:05;;;;;;;83.30;2.20;;;18.50;31.10;;;;;;4976184;28;20445;-70
2023/06/15 05:15:30;;;;;;;84.57;2.83;;;18.10;31.00;;;;;;4975906;28;20178;-70
2023/06/15 05:17:56;;;;;;;85.03;3.17;;;18.20;31.30;;;;;;4976024;28;20210;-70
2023/06/15 05:20:22;;;;;;;83.77;2.50;;;18.20;31.30;;;;;;4976083;28;20237;-72
2023/06/15 05:22:47;;;;;;;83.90;2.60;;;18.30;31.10;;;;;;4975653;28;20582;-70
2023/06/15 05:25:13;;;;;;;83.87;2.77;;;18.40;30.60;;;;;;4975687;28;20186;-70
2023/06/15 05:27:38;;;;;;;85.70;3.50;;;18.60;30.50;;;;;;4976166;28;20259;-70
2023/06/15 05:30:08;;;;;;;88.97;3.03;;;18.50;31.50;;;;;;4975782;28;20187;-71
2023/06/15 05:32:37;;;;;;;84.40;2.80;;;18.50;30.80;;;;;;4975795;28;20199;-72
2023/06/15 05:35:06;;;;;;;86.17;3.27;;;18.50;30.90;;;;;;4975589;28;20418;-70
2023/06/15 05:37:32;;;;;;;83.87;2.47;;;18.40;31.20;;;;;;4975777;28;20450;-70
2023/06/15 05:39:58;;;;;;;84.40;3.00;;;18.30;30.30;;;;;;4975676;28;20424;-72
2023/06/15 05:42:26;;;;;;;84.30;2.70;;;18.00;31.80;;;;;;4975673;28;20800;-70
2023/06/15 05:44:51;;;;;;;85.40;3.27;;;18.20;31.60;;;;;;4975398;28;20653;-70
2023/06/15 05:47:17;;;;;;;85.17;2.87;;;18.40;31.80;;;;;;4975386;28;20448;-70
2023/06/15 05:49:43;;;;;;;84.20;2.70;;;19.00;31.90;;;;;;4975858;28;20175;-70
2023/06/15 05:52:09;;;;;;;84.80;2.43;;;19.10;31.00;;;;;;4975415;28;20946;-70
2023/06/15 05:54:34;;;;;;;99.33;4.00;;;19.20;30.00;;;;;;4975479;28;20187;-71
2023/06/15 05:57:01;;;;;;;83.90;2.40;;;19.70;29.80;;;;;;4975307;28;20204;-70
2023/06/15 05:59:27;;;;;;;84.10;2.70;;;19.30;29.50;;;;;;4975324;28;20170;-70
2023/06/15 06:01:53;;;;;;;84.57;2.63;;;19.30;29.90;;;;;;4975161;28;20865;-71
2023/06/15 06:04:19;;;;;;;84.20;2.60;;;19.50;30.10;;;;;;4975287;28;20517;-70
2023/06/15 06:06:44;;;;;;;86.43;3.40;;;19.60;29.80;;;;;;4974769;28;20427;-71
2023/06/15 06:09:10;;;;;;;83.97;2.70;;;19.70;29.30;;;;;;4974935;28;20212;-70
2023/06/15 06:11:36;;;;;;;84.40;2.70;;;19.20;29.20;;;;;;4975219;28;20196;-70
2023/06/15 06:14:02;;;;;;;83.60;2.40;;;19.50;29.00;;;;;;4975209;28;20178;-70
2023/06/15 06:16:27;;;;;;;84.50;2.33;;;19.40;30.10;;;;;;4974531;28;20467;-70
2023/06/15 06:18:53;;;;;;;84.07;2.73;;;19.70;29.50;;;;;;4974859;28;20268;-72
2023/06/15 06:21:18;;;;;;;84.10;2.80;;;19.90;28.60;;;;;;4975042;28;20255;-70
2023/06/15 06:23:44;;;;;;;85.00;2.60;;;20.20;28.30;;;;;;4974719;28;20579;-70
2023/06/15 06:26:10;;;;;;;84.50;2.83;;;20.70;27.90;;;;;;4974728;28;20181;-70
2023/06/15 06:28:36;;;;;;;84.13;2.40;;;20.30;27.50;;;;;;4975165;28;20577;-70
2023/06/15 06:31:01;;;;;;;83.67;2.40;;;20.10;27.10;;;;;;4975226;28;20541;-70
2023/06/15 06:33:27;;;;;;;83.90;2.87;;;19.90;28.20;;;;;;4973521;28;20195;-72
2023/06/15 06:35:53;;;;;;;83.87;2.70;;;19.20;29.30;;;;;;4974582;28;20566;-70
2023/06/15 06:38:18;;;;;;;83.60;2.60;;;19.40;28.60;;;;;;4974559;28;20206;-70
2023/06/15 06:40:44;;;;;;;83.90;2.77;;;19.20;29.20;;;;;;4974801;28;20239;-70
2023/06/15 06:43:10;;;;;;;84.67;2.83;;;19.10;29.40;;;;;;4974597;28;20617;-71
2023/06/15 06:45:35;;;;;;;83.63;2.60;;;19.20;30.00;;;;;;4974354;28;20215;-71
2023/06/15 06:48:01;;;;;;;83.47;2.40;;;19.20;29.40;;;;;;4974140;28;20421;-70
2023/06/15 06:50:26;;;;;;;83.80;2.83;;;19.80;29.50;;;;;;4974658;28;20258;-70
2023/06/15 06:52:52;;;;;;;83.37;2.60;;;20.50;27.50;;;;;;4974231;28;20206;-70
2023/06/15 06:55:18;;;;;;;84.07;2.77;;;20.30;27.70;;;;;;4974340;28;20183;-71
2023/06/15 06:57:43;;;;;;;83.47;2.70;;;20.30;27.20;;;;;;4974666;28;20657;-70
2023/06/15 07:00:10;;;;;;;83.20;2.67;;;20.80;26.80;;;;;;4974005;28;20180;-70
2023/06/15 07:02:36;;;;;;;83.80;2.90;;;20.60;27.60;;;;;;4972942;28;20202;-70
2023/06/15 07:05:01;;;;;;;84.20;2.97;;;21.10;27.80;;;;;;4974061;28;20494;-70
2023/06/15 07:07:27;;;;;;;83.10;2.47;;;21.50;27.00;;;;;;4974242;28;20589;-70
2023/06/15 07:09:53;;;;;;;83.67;3.00;;;21.80;26.50;;;;;;4974105;28;20550;-70
2023/06/15 07:12:18;;;;;;;83.90;2.93;;;21.40;25.30;;;;;;4974104;28;20233;-71
2023/06/15 07:14:44;;;;;;;84.27;2.70;;;20.90;26.60;;;;;;4973445;28;20182;-70
2023/06/15 07:17:09;;;;;;;84.57;3.00;;;20.80;27.00;;;;;;4973998;28;20616;-70
2023/06/15 07:19:35;;;;;;;85.13;2.80;;;21.30;26.60;;;;;;4974019;28;20176;-71
2023/06/15 07:22:00;;;;;;;83.37;2.50;;;21.70;26.30;;;;;;4973043;28;20335;-71
2023/06/15 07:24:26;;;;;;;83.67;3.00;;;21.70;25.50;;;;;;4973851;28;20591;-70
2023/06/15 07:26:51;;;;;;;82.67;2.50;;;21.60;25.40;;;;;;4973520;28;20200;-70
2023/06/15 07:29:17;;;;;;;83.17;2.90;;;21.60;26.60;;;;;;4973666;28;20175;-70
2023/06/15 07:31:42;;;;;;;83.27;2.70;;;22.10;26.50;;;;;;4973664;28;20208;-70
2023/06/15 07:34:08;;;;;;;82.50;2.60;;;22.60;25.60;;;;;;4973640;28;20205;-70
2023/06/15 07:36:34;;;;;;;84.30;3.27;;;22.70;25.00;;;;;;4973278;28;20198;-70
2023/06/15 07:38:59;;;;;;;82.60;2.40;;;22.80;24.40;;;;;;4973639;28;20170;-70
2023/06/15 07:41:25;;;;;;;83.30;2.90;;;22.10;25.50;;;;;;4973734;28;20256;-71
2023/06/15 07:43:50;;;;;;;82.33;2.80;;;22.10;25.30;;;;;;4973295;28;20564;-70
2023/06/15 07:46:16;;;;;;;82.33;2.40;;;21.40;25.90;;;;;;4972034;28;20595;-70
2023/06/15 07:48:42;;;;;;;82.10;2.30;;;21.30;26.30;;;;;;4973410;28;20181;-70
2023/06/15 07:51:07;;;;;;;82.57;2.60;;;22.10;27.90;;;;;;4972353;28;20229;-71
2023/06/15 07:53:33;;;;;;;82.27;2.73;;;22.70;25.10;;;;;;4973315;28;20200;-70
2023/06/15 07:55:58;;;;;;;82.70;2.70;;;23.10;23.90;;;;;;4973107;28;20167;-70
2023/06/15 07:58:24;;;;;;;83.00;2.53;;;23.10;23.90;;;;;;4973488;28;20769;-71
2023/06/15 08:00:50;;;;;;;81.90;2.23;;;23.40;23.60;;;;;;4973142;28;20166;-71
2023/06/15 08:03:15;;;;;;;82.70;2.70;;;23.20;23.60;;;;;;4973016;28;20201;-70
2023/06/15 08:05:41;;;;;;;82.20;2.67;;;23.30;24.30;;;;;;4973139;28;20172;-70
2023/06/15 08:08:06;;;;;;;83.00;2.60;;;23.50;22.50;;;;;;4973140;28;20182;-70
2023/06/15 08:10:32;;;;;;;82.17;2.50;;;23.30;22.90;;;;;;4973153;28;20179;-70
2023/06/15 08:12:58;;;;;;;82.73;2.50;;;22.80;22.90;;;;;;4972919;28;20205;-72
2023/06/15 08:15:23;;;;;;;81.77;2.67;;;22.90;23.70;;;;;;4972455;28;20174;-71
2023/06/15 08:17:49;;;;;;;88.97;3.20;;;23.50;23.90;;;;;;4973169;28;20513;-70
2023/06/15 08:20:15;;;;;;;82.57;2.87;;;23.50;23.50;;;;;;4972969;28;20557;-71
2023/06/15 08:22:41;;;;;;;81.27;2.40;;;23.80;23.30;;;;;;4972922;28;20209;-70
2023/06/15 08:25:09;;;;;;;81.43;2.63;;;23.80;22.70;;;;;;4972599;28;20507;-70
2023/06/15 08:27:35;;;;;;;82.07;2.47;;;23.60;23.30;;;;;;4972822;28;20492;-71
2023/06/15 08:30:01;;;;;;;81.37;2.40;;;23.90;23.90;;;;;;4972678;28;20410;-71
2023/06/15 08:32:26;;;;;;;80.93;2.37;;;24.10;23.70;;;;;;4972852;28;20574;-71
2023/06/15 08:34:52;;;;;;;81.30;2.40;;;24.10;23.30;;;;;;4972252;28;20591;-70
2023/06/15 08:37:17;;;;;;;81.57;2.30;;;24.10;23.00;;;;;;4972810;28;20209;-70
2023/06/15 08:39:43;;;;;;;81.20;2.33;;;24.10;24.60;;;;;;4973132;28;20173;-71
2023/06/15 08:42:08;;;;;;;82.90;2.90;;;24.50;23.90;;;;;;4972488;28;20274;-70
2023/06/15 08:44:35;;;;;;;81.83;2.37;;;25.00;23.60;;;;;;4972711;28;20183;-71
2023/06/15 08:47:03;;;;;;;82.00;2.90;;;25.10;22.60;;;;;;4972712;28;20679;-70
2023/06/15 08:49:32;;;;;;;81.20;2.40;;;24.60;23.00;;;;;;4972748;28;20455;-71
2023/06/15 08:51:58;;;;;;;82.07;2.60;;;24.50;21.90;;;;;;4972512;28;20933;-70
2023/06/15 08:54:27;;;;;;;80.87;2.10;;;23.40;23.60;;;;;;4972454;28;20411;-70
2023/06/15 08:56:53;;;;;;;81.20;2.63;;;23.40;23.80;;;;;;4972310;28;20512;-71
2023/06/15 08:59:19;;;;;;;81.47;2.50;;;24.00;23.40;;;;;;4972530;28;20412;-70
2023/06/15 09:01:46;;;;;;;81.33;2.73;;;24.60;22.90;;;;;;4972486;28;20499;-71
2023/06/15 09:04:12;;;;;;;81.20;2.70;;;24.60;21.50;;;;;;4972531;28;20199;-72
2023/06/15 09:06:38;;;;;;;81.63;2.83;;;24.80;20.50;;;;;;4972189;28;20410;-70
2023/06/15 09:09:04;;;;;;;80.80;2.60;;;24.40;21.90;;;;;;4972492;28;20930;-70
2023/06/15 09:11:37;;;;;;;81.43;2.77;;;24.90;22.10;;;;;;4972281;28;20189;-71
2023/06/15 09:14:07;;;;;;;80.50;2.53;;;25.40;21.10;;;;;;4972320;28;20216;-70
2023/06/15 09:16:33;;;;;;;81.93;3.10;;;25.70;21.00;;;;;;4972131;28;20441;-71
2023/06/15 09:18:59;;;;;;;80.20;2.40;;;26.10;19.20;;;;;;4972370;28;20417;-70
2023/06/15 09:21:26;;;;;;;80.00;2.30;;;26.10;18.40;;;;;;4972344;28;20548;-71
2023/06/15 09:23:51;;;;;;;82.40;2.57;;;26.30;18.30;;;;;;4971997;28;20464;-71
2023/06/15 09:26:26;;;;;;;80.27;2.47;;;26.40;18.90;;;;;;4970812;28;20900;-70
2023/06/15 09:28:55;;;;;;;79.93;2.40;;;26.60;19.00;;;;;;4972301;28;20197;-71
2023/06/15 09:31:34;;;;;;;80.40;2.53;;;26.80;17.90;;;;;;4972271;28;20717;-70
2023/06/15 09:34:08;;;;;;;79.77;2.37;;;25.30;18.70;;;;;;4972340;28;20919;-71
2023/06/15 09:36:49;;;;;;;80.90;3.10;;;25.00;19.90;;;;;;4971583;28;20445;-71
2023/06/15 09:39:16;;;;;;;79.37;2.43;;;25.60;18.70;;;;;;4972381;28;20429;-71
2023/06/15 09:42:11;;;;;;;79.47;2.70;;;26.10;18.60;;;;;;4972122;28;20771;-70
2023/06/15 09:44:40;;;;;;;80.07;2.83;;;26.20;17.50;;;;;;4932569;29;20786;-71
2023/06/15 09:47:15;;;;;;;79.10;2.20;;;26.30;16.50;;;;;;4934994;29;20427;-70
2023/06/15 09:49:44;;;;;;;79.73;2.50;;;26.40;16.10;;;;;;4934758;29;20419;-70
2023/06/15 09:52:13;;;;;;;79.13;2.47;;;26.00;17.70;;;;;;4934844;29;20439;-71
2023/06/15 09:54:39;;;;;;;78.97;2.30;;;26.10;16.40;;;;;;4934639;29;20917;-70
2023/06/15 09:57:05;;;;;;;78.77;2.37;;;26.80;15.60;;;;;;4934557;29;20498;-71
2023/06/15 09:59:31;;;;;;;78.90;2.67;;;26.40;16.00;;;;;;4934675;29;20424;-71
2023/06/15 10:02:00;;;;;;;78.63;2.20;;;26.90;15.20;;;;;;4934181;29;20446;-71
2023/06/15 10:04:40;;;;;;;78.87;2.37;;;27.20;15.70;;;;;;4934531;29;20296;-74
2023/06/15 10:07:08;;;;;;;78.40;2.47;;;27.20;15.10;;;;;;4934529;29;20427;-71
2023/06/15 10:09:48;;;;;;;78.83;2.50;;;27.30;14.40;;;;;;4934593;29;20566;-71
2023/06/15 10:12:22;;;;;;;78.37;2.23;;;27.50;14.30;;;;;;4934232;29;20438;-71
2023/06/15 10:15:04;;;;;;;77.87;2.30;;;27.20;14.30;;;;;;4934173;29;20427;-70
2023/06/15 10:17:33;;;;;;;77.77;2.17;;;26.40;14.10;;;;;;4934504;29;20554;-71
2023/06/15 10:20:23;;;;;;;77.63;2.37;;;25.70;16.30;;;;;;4937575;28;20424;-72
2023/06/15 10:22:57;;;;;;;77.77;2.50;;;26.10;17.50;;;;;;4974739;28;20445;-71
2023/06/15 10:25:24;;;;;;;77.60;2.43;;;26.70;17.00;;;;;;4974780;28;20395;-70
2023/06/15 10:27:50;;;;;;;77.67;2.40;;;27.10;15.50;;;;;;4974909;28;20412;-71
2023/06/15 10:30:31;;;;;;;77.77;2.50;;;26.80;14.10;;;;;;4974933;28;20784;-70
2023/06/15 10:33:24;;;;;;;76.87;2.00;;;27.20;14.60;;;;;;4974771;28;20430;-71
2023/06/15 10:36:03;;;;;;;77.27;2.40;;;27.80;13.40;;;;;;4974364;28;20390;-71
2023/06/15 10:38:34;;;;;;;78.30;3.10;;;27.90;14.40;;;;;;4973399;28;20472;-70
2023/06/15 10:41:00;;;;;;;76.60;2.07;;;28.10;12.40;;;;;;4973302;28;20453;-70
2023/06/15 10:43:27;;;;;;;77.33;2.37;;;27.10;12.90;;;;;;4974681;28;21007;-71
2023/06/15 10:45:53;;;;;;;77.00;2.57;;;26.60;15.20;;;;;;4974218;28;20504;-71
2023/06/15 10:48:27;;;;;;;77.77;2.50;;;27.00;13.50;;;;;;4974477;28;20442;-71
2023/06/15 10:51:06;;;;;;;76.37;2.20;;;27.70;13.00;;;;;;4974459;28;20173;-71
2023/06/15 10:53:41;;;;;;;76.77;2.47;;;28.20;11.70;;;;;;4974512;28;20488;-71
2023/06/15 10:56:14;;;;;;;76.67;2.30;;;28.30;11.80;;;;;;4974167;28;20424;-71
2023/06/15 10:58:53;;;;;;;76.40;2.30;;;28.40;11.20;;;;;;4974152;28;20414;-71
2023/06/15 11:01:22;;;;;;;76.20;2.20;;;29.10;10.20;;;;;;4974176;28;20406;-71
2023/06/15 11:03:47;;;;;;;77.87;2.10;;;29.00;10.90;;;;;;4974294;28;20962;-72
2023/06/15 11:06:15;;;;;;;76.17;2.20;;;29.50;8.60;;;;;;4973763;28;20493;-71
2023/06/15 11:08:52;;;;;;;76.27;2.40;;;29.60;9.10;;;;;;4974024;28;20660;-71
2023/06/15 11:11:38;;;;;;;75.73;2.20;;;30.00;8.90;;;;;;4973932;28;20402;-72
2023/06/15 11:14:04;;;;;;;77.90;2.50;;;29.10;6.70;;;;;;4974118;28;20441;-71
2023/06/15 11:16:37;;;;;;;75.60;2.20;;;29.40;7.80;;;;;;4973484;28;20519;-72
2023/06/15 11:19:12;;;;;;;75.47;2.43;;;29.70;7.50;;;;;;4974000;28;20763;-71
2023/06/15 11:21:47;;;;;;;75.07;2.30;;;30.10;8.20;;;;;;4972468;28;20849;-71
2023/06/15 11:24:13;;;;;;;75.67;2.57;;;29.20;9.80;;;;;;4973915;28;20488;-71
2023/06/15 11:26:43;;;;;;;75.80;2.40;;;29.30;9.90;;;;;;4973524;28;20500;-71
2023/06/15 11:29:12;;;;;;;75.47;2.50;;;28.60;10.70;;;;;;4973690;28;20425;-71
2023/06/15 11:31:40;;;;;;;74.07;2.10;;;29.20;10.90;;;;;;4973579;28;20429;-71
2023/06/15 11:34:10;;;;;;;74.90;2.30;;;30.10;10.00;;;;;;4973763;28;20450;-71
2023/06/15 11:36:36;;;;;;;74.60;2.00;;;31.20;8.30;;;;;;4973220;28;20516;-71
2023/06/15 11:39:04;;;;;;;74.97;2.17;;;32.80;7.20;;;;;;4973853;28;20453;-71
2023/06/15 11:41:30;;;;;;;75.10;2.40;;;33.40;6.00;;;;;;4973414;28;20167;-71
2023/06/15 11:43:56;;;;;;;74.50;2.20;;;33.80;5.60;;;;;;4973542;28;20406;-71
2023/06/15 11:46:23;;;;;;;73.73;2.00;;;33.30;6.30;;;;;;4973484;28;20189;-71
2023/06/15 11:48:54;;;;;;;73.37;1.97;;;34.60;5.40;;;;;;4973347;28;20488;-72
2023/06/15 11:51:20;;;;;;;73.87;2.10;;;35.10;4.20;;;;;;4973571;28;20430;-72
2023/06/15 11:53:46;;;;;;;73.40;2.10;;;35.10;4.30;;;;;;4973383;28;20993;-72
2023/06/15 11:56:14;;;;;;;72.10;1.70;;;34.10;5.00;;;;;;4973043;28;20577;-72
2023/06/15 11:58:41;;;;;;;71.57;1.70;;;35.50;4.50;;;;;;4973523;28;20414;-72
2023/06/15 12:01:07;;;;;;;71.43;2.00;;;35.50;3.20;;;;;;4973066;28;20414;-71
2023/06/15 12:03:37;;;;;;;79.63;2.17;;;32.70;4.60;;;;;;4973220;28;20469;-71
2023/06/15 12:06:03;;;;;;;70.27;1.70;;;32.00;6.90;;;;;;4973000;28;20413;-71
2023/06/15 12:08:30;;;;;;;70.17;1.70;;;32.90;4.80;;;;;;4972622;28;20414;-71
2023/06/15 12:10:56;;;;;;;70.63;2.10;;;32.00;4.90;;;;;;4973033;28;20202;-71
2023/06/15 12:13:23;;;;;;;69.77;1.80;;;32.40;4.80;;;;;;4972977;28;20461;-71
2023/06/15 12:15:49;;;;;;;70.57;2.40;;;32.30;6.60;;;;;;4971359;28;20711;-72
2023/06/15 12:18:16;;;;;;;70.00;2.00;;;33.30;7.60;;;;;;4972947;28;20453;-71
2023/06/15 12:20:43;;;;;;;69.90;1.83;;;34.60;7.40;;;;;;4973153;28;20175;-72
2023/06/15 12:23:08;;;;;;;69.90;1.90;;;34.80;6.40;;;;;;4972587;28;20919;-71
2023/06/15 12:25:45;;;;;;;69.80;1.83;;;31.60;6.70;;;;;;4972727;28;20449;-71
2023/06/15 12:28:20;;;;;;;70.47;2.10;;;31.40;8.20;;;;;;4972785;28;20213;-71
2023/06/15 12:30:48;;;;;;;70.20;2.03;;;32.00;7.80;;;;;;4972891;28;20443;-71
2023/06/15 12:33:38;;;;;;;70.00;1.97;;;32.00;7.00;;;;;;4972700;28;20785;-71
2023/06/15 12:36:12;;;;;;;70.43;2.00;;;32.80;7.50;;;;;;4971298;28;20429;-71
2023/06/15 12:38:40;;;;;;;70.93;2.20;;;30.90;6.80;;;;;;4972485;28;20904;-72
2023/06/15 12:41:15;;;;;;;70.60;2.00;;;31.70;8.40;;;;;;4972819;28;20413;-71
2023/06/15 12:43:41;;;;;;;69.80;2.00;;;33.30;5.30;;;;;;4972717;28;20402;-72